createdAt,value
2019-06-26T00:00:38.127Z,100536.97
2019-06-26T00:05:42.176Z,100543.73
2019-06-26T00:10:46.170Z,100539.69
2019-06-26T00:15:50.102Z,100542.32
2019-06-26T00:20:54.049Z,100551.25
2019-06-26T00:25:58.067Z,100550.33
2019-06-26T00:31:02.017Z,100537.56
2019-06-26T00:36:05.947Z,100552.45
2019-06-26T00:41:10.017Z,100552.45
2019-06-26T00:46:13.995Z,100561.53
2019-06-26T00:51:18.201Z,100561.53
2019-06-26T00:56:22.208Z,100563.66
2019-06-26T01:01:26.145Z,100567.28
2019-06-26T01:06:45.176Z,100568.94
2019-06-26T01:11:49.122Z,100568.94
2019-06-26T01:16:53.050Z,100565.36
2019-06-26T01:21:57.060Z,100568.70
2019-06-26T01:27:01.005Z,100566.98
2019-06-26T01:32:05.090Z,100561.34
2019-06-26T01:37:09.016Z,100561.34
2019-06-26T01:42:12.946Z,100560.13
2019-06-26T01:47:16.947Z,100560.13
2019-06-26T01:52:20.970Z,100544.63
2019-06-26T01:57:24.902Z,100544.63
2019-06-26T02:02:29.223Z,100567.17
2019-06-26T02:07:33.169Z,100560.38
2019-06-26T02:12:37.234Z,100557.45
2019-06-26T02:17:41.177Z,100555.20
2019-06-26T02:22:45.106Z,100563.36
2019-06-26T02:27:49.032Z,100554.85
2019-06-26T02:32:53.009Z,100548.41
2019-06-26T02:37:56.897Z,100560.94
2019-06-26T02:43:06.353Z,100545.80
2019-06-26T02:48:06.735Z,100563.80
2019-06-26T02:53:10.740Z,100555.65
2019-06-26T02:58:14.690Z,100555.30
2019-06-26T03:03:18.641Z,100552.97
2019-06-26T03:08:22.646Z,100552.97
2019-06-26T03:13:26.601Z,100561.33
2019-06-26T03:18:30.529Z,100559.51
2019-06-26T03:23:34.614Z,100562.23
2019-06-26T03:28:38.553Z,100560.30
2019-06-26T03:33:42.763Z,100567.95
2019-06-26T03:38:46.791Z,100567.95
2019-06-26T03:43:50.761Z,100563.13
2019-06-26T03:48:54.701Z,100564.62
2019-06-26T03:53:58.656Z,100562.40
2019-06-26T03:59:02.615Z,100568.38
2019-06-26T04:04:06.570Z,100554.91
2019-06-26T04:09:11.201Z,100554.91
2019-06-26T04:14:15.148Z,100573.63
2019-06-26T04:19:19.116Z,100583.25
2019-06-26T04:24:23.027Z,100581.67
2019-06-26T04:29:26.957Z,100588.07
2019-06-26T04:34:30.899Z,100583.63
2019-06-26T04:39:34.851Z,100591.28
2019-06-26T04:44:38.782Z,100594.53
2019-06-26T04:49:42.727Z,100594.53
2019-06-26T04:54:46.657Z,100587.66
2019-06-26T04:59:50.656Z,100595.68
2019-06-26T05:04:54.619Z,100595.68
2019-06-26T05:09:58.683Z,100587.39
2019-06-26T05:15:02.640Z,100579.88
2019-06-26T05:20:08.318Z,100579.88
2019-06-26T05:25:12.342Z,100590.16
2019-06-26T05:30:16.940Z,100590.16
2019-06-26T05:35:20.941Z,100590.84
2019-06-26T05:40:25.054Z,100592.89
2019-06-26T05:45:29.116Z,100592.89
2019-06-26T05:50:33.055Z,100595.36
2019-06-26T05:55:36.991Z,100599.41
2019-06-26T06:00:40.955Z,100600.13
2019-06-26T06:05:45.001Z,100604.34
2019-06-26T06:10:49.015Z,100598.66
2019-06-26T06:15:52.977Z,100615.17
2019-06-26T06:20:56.955Z,100615.17
2019-06-26T06:26:01.205Z,100613.17
2019-06-26T06:31:05.216Z,100620.78
2019-06-26T06:36:09.889Z,100620.78
2019-06-26T06:41:14.060Z,100601.56
2019-06-26T06:46:18.249Z,100619.86
2019-06-26T06:51:22.252Z,100630.47
2019-06-26T06:56:26.286Z,100630.47
2019-06-26T07:01:30.261Z,100635.12
2019-06-26T07:06:34.379Z,100635.12
2019-06-26T07:11:38.548Z,100642.77
2019-06-26T07:16:42.583Z,100642.77
2019-06-26T07:21:46.544Z,100643.13
2019-06-26T07:26:50.472Z,100642.34
2019-06-26T07:31:54.443Z,100645.20
2019-06-26T07:36:58.386Z,100650.73
2019-06-26T07:42:02.481Z,100650.23
2019-06-26T07:47:21.905Z,100650.23
2019-06-26T07:52:12.166Z,100653.67
2019-06-26T07:57:16.135Z,100653.67
2019-06-26T08:02:20.105Z,100648.98
2019-06-26T08:07:24.316Z,100648.98
2019-06-26T08:12:28.292Z,100649.20
2019-06-26T08:17:32.238Z,100655.38
2019-06-26T08:22:36.201Z,100636.16
2019-06-26T08:27:40.156Z,100647.13
2019-06-26T08:32:44.102Z,100651.05
2019-06-26T08:37:48.098Z,100652.66
2019-06-26T08:42:52.106Z,100649.66
2019-06-26T08:47:56.111Z,100647.19
2019-06-26T08:53:00.058Z,100647.19
2019-06-26T08:58:04.135Z,100646.03
2019-06-26T09:03:08.154Z,100643.17
2019-06-26T09:08:12.209Z,100642.56
2019-06-26T09:13:16.421Z,100640.56
2019-06-26T09:18:34.294Z,100639.20
2019-06-26T09:23:26.041Z,100640.30
2019-06-26T09:28:29.985Z,100640.30
2019-06-26T09:33:33.939Z,100636.70
2019-06-26T09:38:37.884Z,100639.91
2019-06-26T09:43:41.949Z,100643.02
2019-06-26T09:48:52.946Z,100636.70
2019-06-26T09:53:51.543Z,100637.59
2019-06-26T09:58:55.512Z,100631.50
2019-06-26T10:03:59.538Z,100636.44
2019-06-26T10:09:03.797Z,100623.39
2019-06-26T10:14:07.762Z,100630.00
2019-06-26T10:19:11.732Z,100627.06
2019-06-26T10:24:15.689Z,100626.56
2019-06-26T10:29:19.729Z,100623.70
2019-06-26T10:34:23.675Z,100621.34
2019-06-26T10:39:27.628Z,100621.34
2019-06-26T10:44:31.766Z,100620.23
2019-06-26T10:49:35.711Z,100616.50
2019-06-26T10:54:39.675Z,100609.06
2019-06-26T10:59:43.660Z,100614.50
2019-06-26T11:04:47.707Z,100609.80
2019-06-26T11:09:51.678Z,100600.14
2019-06-26T11:14:55.824Z,100600.14
2019-06-26T11:19:59.795Z,100595.02
2019-06-26T11:25:03.913Z,100595.02
2019-06-26T11:30:09.263Z,100585.44
2019-06-26T11:35:13.576Z,100578.50
2019-06-26T11:40:18.381Z,100578.50
2019-06-26T11:45:23.313Z,100574.16
2019-06-26T11:50:27.402Z,100574.16
2019-06-26T11:55:31.421Z,100582.02
2019-06-26T12:00:35.364Z,100572.08
2019-06-26T12:05:39.339Z,100576.05
2019-06-26T12:10:43.271Z,100572.56
2019-06-26T12:15:47.306Z,100563.39
2019-06-26T12:20:51.258Z,100563.78
2019-06-26T12:25:55.251Z,100556.83
2019-06-26T12:30:59.410Z,100565.84
2019-06-26T12:36:03.322Z,100557.54
2019-06-26T12:41:07.314Z,100557.54
2019-06-26T12:46:11.336Z,100556.77
2019-06-26T12:51:15.275Z,100557.83
2019-06-26T12:56:19.268Z,100561.41
2019-06-26T13:01:25.207Z,100548.87
2019-06-26T13:06:29.110Z,100564.21
2019-06-26T13:11:33.447Z,100553.68
2019-06-26T13:16:38.112Z,100554.77
2019-06-26T13:21:42.098Z,100554.77
2019-06-26T13:26:46.109Z,100546.81
2019-06-26T13:31:50.104Z,100546.81
2019-06-26T13:36:54.033Z,100546.69
2019-06-26T13:41:57.965Z,100543.83
2019-06-26T13:47:01.939Z,100521.42
2019-06-26T13:52:05.966Z,100531.51
2019-06-26T13:57:09.924Z,100528.78
2019-06-26T14:02:14.973Z,100507.09
2019-06-26T14:07:19.375Z,100521.33
2019-06-26T14:12:23.658Z,100521.33
2019-06-26T14:17:27.676Z,100515.81
2019-06-26T14:22:31.726Z,100515.81
2019-06-26T14:27:35.734Z,100505.58
2019-06-26T14:32:39.665Z,100503.06
2019-06-26T14:37:43.614Z,100502.44
2019-06-26T14:42:47.557Z,100514.02
2019-06-26T14:47:51.487Z,100493.48
2019-06-26T14:52:55.461Z,100506.20
2019-06-26T14:57:59.421Z,100506.20
2019-06-26T15:03:04.323Z,100497.45
2019-06-26T15:08:08.330Z,100487.08
2019-06-26T15:13:12.264Z,100491.23
2019-06-26T15:18:16.212Z,100478.13
2019-06-26T15:23:20.397Z,100478.13
2019-06-26T15:28:24.498Z,100480.16
2019-06-26T15:33:28.430Z,100477.08
2019-06-26T15:38:32.505Z,100469.86
2019-06-26T15:43:36.980Z,100464.09
2019-06-26T15:48:40.927Z,100459.94
2019-06-26T15:53:44.919Z,100460.67
2019-06-26T15:58:48.951Z,100460.67
2019-06-26T16:03:52.965Z,100459.00
2019-06-26T16:08:56.891Z,100464.48
2019-06-26T16:14:00.832Z,100461.26
2019-06-26T16:19:10.471Z,100457.68
2019-06-26T16:24:14.483Z,100461.48
2019-06-26T16:29:18.440Z,100460.82
2019-06-26T16:34:22.367Z,100459.02
2019-06-26T16:39:26.339Z,100459.02
2019-06-26T16:44:30.324Z,100464.73
2019-06-26T16:49:34.267Z,100468.78
2019-06-26T16:54:38.207Z,100467.98
2019-06-26T16:59:42.261Z,100475.67
2019-06-26T17:04:46.282Z,100475.30
2019-06-26T17:09:50.561Z,100477.23
2019-06-26T17:14:54.556Z,100477.23
2019-06-26T17:19:58.569Z,100488.31
2019-06-26T17:25:02.932Z,100502.57
2019-06-26T17:30:07.964Z,100508.21
2019-06-26T17:35:13.260Z,100503.36
2019-06-26T17:40:17.297Z,100503.36
2019-06-26T17:45:21.799Z,100508.02
2019-06-26T17:50:25.751Z,100512.62
2019-06-26T17:55:29.706Z,100512.62
2019-06-26T18:00:35.861Z,100505.80
2019-06-26T18:05:39.806Z,100505.80
2019-06-26T18:10:43.774Z,100514.52
2019-06-26T18:15:47.756Z,100520.98
2019-06-26T18:20:51.733Z,100520.98
2019-06-26T18:26:11.881Z,100528.30
2019-06-26T18:31:01.628Z,100530.52
2019-06-26T18:36:06.165Z,100532.37
2019-06-26T18:41:10.094Z,100539.19
2019-06-26T18:46:14.121Z,100552.45
2019-06-26T18:51:19.543Z,100554.83
2019-06-26T18:56:23.562Z,100572.19
2019-06-26T19:01:27.598Z,100565.73
2019-06-26T19:06:31.637Z,100565.73
2019-06-26T19:11:35.784Z,100578.11
2019-06-26T19:16:39.742Z,100578.84
2019-06-26T19:21:43.691Z,100578.84
2019-06-26T19:26:47.634Z,100594.17
2019-06-26T19:31:51.572Z,100589.73
2019-06-26T19:36:55.611Z,100589.73
2019-06-26T19:41:59.662Z,100599.77
2019-06-26T19:47:03.625Z,100612.53
2019-06-26T19:52:07.576Z,100612.53
2019-06-26T19:57:11.512Z,100616.81
2019-06-26T20:02:15.610Z,100619.77
2019-06-26T20:07:19.640Z,100623.47
2019-06-26T20:12:23.815Z,100617.91
2019-06-26T20:17:27.858Z,100628.06
2019-06-26T20:22:31.805Z,100636.39
2019-06-26T20:27:35.849Z,100637.75
2019-06-26T20:32:39.815Z,100647.64
2019-06-26T20:37:43.797Z,100647.64
2019-06-26T20:42:47.728Z,100662.42
2019-06-26T20:47:51.690Z,100671.09
2019-06-26T20:52:55.852Z,100675.69
2019-06-26T20:57:59.815Z,100675.69
2019-06-26T21:03:03.891Z,100686.94
2019-06-26T21:08:08.126Z,100699.31
2019-06-26T21:13:12.124Z,100699.31
2019-06-26T21:18:16.106Z,100704.76
2019-06-26T21:23:23.319Z,100704.76
2019-06-26T21:28:25.793Z,100716.89
2019-06-26T21:33:29.776Z,100718.26
2019-06-26T21:38:33.999Z,100716.55
2019-06-26T21:43:38.055Z,100716.89
2019-06-26T21:48:42.001Z,100722.84
2019-06-26T21:53:46.041Z,100726.43
2019-06-26T21:58:50.104Z,100733.74
2019-06-26T22:03:54.143Z,100733.74
2019-06-26T22:08:58.119Z,100741.05
2019-06-26T22:14:02.105Z,100747.87
2019-06-26T22:19:06.128Z,100752.66
2019-06-26T22:24:10.085Z,100746.00
2019-06-26T22:29:14.164Z,100759.47
2019-06-26T22:34:18.137Z,100748.05
2019-06-26T22:39:22.091Z,100769.86
2019-06-26T22:44:26.170Z,100769.86
2019-06-26T22:49:30.145Z,100779.04
2019-06-26T22:54:34.114Z,100781.27
2019-06-26T22:59:38.180Z,100784.84
2019-06-26T23:04:42.143Z,100786.05
2019-06-26T23:09:46.118Z,100788.93
2019-06-26T23:14:50.196Z,100792.31
2019-06-26T23:19:54.310Z,100800.09
2019-06-26T23:24:58.282Z,100790.50
2019-06-26T23:30:02.363Z,100811.22
2019-06-26T23:35:06.892Z,100811.22
2019-06-26T23:40:11.885Z,100820.76
2019-06-26T23:45:16.026Z,100817.44
2019-06-26T23:50:19.993Z,100806.76
2019-06-26T23:55:23.956Z,100806.76
